Time;durP1;ratioP1;P1;durP2;ratioP2;P2;SDS_P1;SDS_P2;PMS_P1;PMS_P2;Temp;Humidity;BMP_temperature;BMP_pressure;BME280_temperature;BME280_humidity;BME280_pressure;Samples;Min_cycle;Max_cycle;Signal;HPM_P1;HPM_P2
2022/09/16 00:00:34;;;;;;;;;4.67;4.67;;;;;18.17;50.76;101009.88;5021134;28;45298;-80
2022/09/16 00:03:00;;;;;;;;;4.00;4.00;;;;;18.13;50.55;101010.06;5019517;28;45461;-80
2022/09/16 00:05:25;;;;;;;;;5.75;5.75;;;;;18.07;50.44;101006.66;5019667;28;47120;-80
2022/09/16 00:07:51;;;;;;;;;5.75;5.75;;;;;18.05;50.58;101013.81;5019360;28;45410;-80
2022/09/16 00:10:17;;;;;;;;;7.00;7.00;;;;;18.01;50.70;101014.81;5019770;28;45598;-79
2022/09/16 00:12:42;;;;;;;;;5.00;5.00;;;;;17.96;50.79;101013.22;5019487;28;45483;-79
2022/09/16 00:15:09;;;;;;;;;8.00;6.00;;;;;17.89;51.07;101015.19;5019573;28;46074;-80
2022/09/16 00:17:34;;;;;;;;;6.50;6.50;;;;;17.84;51.66;101020.66;5019427;28;45499;-80
2022/09/16 00:20:00;;;;;;;;;5.00;5.00;;;;;17.85;51.29;101027.75;5019012;28;45247;-80
2022/09/16 00:22:29;;;;;;;;;4.25;3.00;;;;;17.80;51.94;101032.31;5020625;28;45219;-80
2022/09/16 00:24:54;;;;;;;;;6.00;6.00;;;;;17.81;51.90;101033.19;5019160;28;48443;-80
2022/09/16 00:27:19;;;;;;;;;7.75;6.50;;;;;17.78;52.13;101019.94;5020411;28;45344;-80
2022/09/16 00:29:45;;;;;;;;;7.75;7.75;;;;;17.79;52.35;101029.69;5020902;28;45403;-80
2022/09/16 00:32:11;;;;;;;;;7.25;5.75;;;;;17.74;52.48;101029.78;5019239;28;45468;-79
2022/09/16 00:34:36;;;;;;;;;5.00;5.00;;;;;17.69;52.19;101022.84;5019122;28;47902;-80
2022/09/16 00:37:02;;;;;;;;;6.75;6.75;;;;;17.65;52.85;101024.75;5020574;28;45383;-80
2022/09/16 00:39:28;;;;;;;;;3.00;3.00;;;;;17.63;52.71;101030.09;5020468;28;45440;-80
2022/09/16 00:41:54;;;;;;;;;5.00;5.00;;;;;17.60;52.82;101035.50;5019214;28;45557;-79
2022/09/16 00:45:08;;;;;;;;;7.00;6.25;;;;;17.58;53.26;101032.00;5018999;28;48120;-79
2022/09/16 00:47:52;;;;;;;;;7.00;7.00;;;;;17.50;53.35;101015.38;5010349;28;45351;-79
2022/09/16 00:50:39;;;;;;;;;7.00;6.25;;;;;17.51;53.28;101016.25;5020932;28;45392;-79
2022/09/16 00:53:11;;;;;;;;;9.25;6.00;;;;;17.52;53.45;101016.22;5018799;28;45478;-79
2022/09/16 00:55:38;;;;;;;;;6.75;5.25;;;;;17.51;53.42;101024.22;5020761;28;45486;-80
2022/09/16 00:58:14;;;;;;;;;7.75;6.00;;;;;17.48;53.68;101019.00;5020531;28;45430;-80
2022/09/16 01:00:40;;;;;;;;;6.75;6.25;;;;;17.46;53.75;101021.72;5020309;28;45173;-80
2022/09/16 01:03:05;;;;;;;;;9.50;7.00;;;;;17.48;53.91;101019.91;5020177;28;45315;-80
2022/09/16 01:05:31;;;;;;;;;7.25;6.75;;;;;17.49;54.28;101026.09;5020289;28;46545;-80
2022/09/16 01:07:57;;;;;;;;;6.75;6.50;;;;;17.44;54.33;101014.69;5020043;28;45374;-80
2022/09/16 01:10:25;;;;;;;;;7.00;5.75;;;;;17.40;54.16;101013.88;5019031;28;45344;-80
2022/09/16 01:12:55;;;;;;;;;6.00;5.00;;;;;17.41;54.23;101019.19;5020049;28;45761;-79
2022/09/16 01:15:29;;;;;;;;;6.25;6.25;;;;;17.39;54.66;101023.66;5019982;28;46652;-80
2022/09/16 01:18:02;;;;;;;;;7.00;7.00;;;;;17.30;54.60;101018.59;5020178;28;45464;-79
2022/09/16 01:20:54;;;;;;;;;9.25;8.25;;;;;17.29;54.87;101023.97;5018666;28;45363;-80
2022/09/16 01:23:54;;;;;;;;;7.75;7.00;;;;;17.30;54.54;101031.91;5019759;28;45529;-80
2022/09/16 01:26:20;;;;;;;;;7.50;7.50;;;;;17.24;54.82;101026.75;4997872;28;45467;-80
2022/09/16 01:29:09;;;;;;;;;5.75;5.75;;;;;17.22;55.33;101022.41;5015166;28;45286;-80
2022/09/16 01:31:45;;;;;;;;;7.00;7.00;;;;;17.18;55.56;101026.91;5017868;28;45449;-79
2022/09/16 01:34:25;;;;;;;;;7.50;7.00;;;;;17.11;55.30;101023.56;5019966;28;45375;-80
2022/09/16 01:37:07;;;;;;;;;6.75;6.75;;;;;17.11;56.31;101025.34;5018251;28;47296;-80
2022/09/16 01:40:17;;;;;;;;;7.25;7.00;;;;;17.10;55.85;101032.41;5019325;28;45398;-79
2022/09/16 01:43:00;;;;;;;;;8.00;8.00;;;;;17.05;56.20;101030.81;5011815;28;45439;-79
2022/09/16 01:45:46;;;;;;;;;7.00;7.00;;;;;17.00;56.12;101033.59;5018224;28;45280;-80
2022/09/16 01:48:16;;;;;;;;;5.75;5.75;;;;;16.97;56.26;101031.00;5017764;28;47835;-80
2022/09/16 01:50:59;;;;;;;;;12.25;10.25;;;;;16.92;56.49;101031.13;5019636;28;45385;-79
2022/09/16 01:53:35;;;;;;;;;9.75;9.00;;;;;16.84;56.74;101024.25;5019500;28;45457;-79
2022/09/16 01:56:13;;;;;;;;;10.75;8.50;;;;;16.80;56.57;101020.78;5018491;28;45414;-79
2022/09/16 01:58:47;;;;;;;;;11.25;10.00;;;;;16.75;57.03;101026.19;5017793;28;47557;-79
2022/09/16 02:01:32;;;;;;;;;9.50;8.00;;;;;16.69;57.06;101021.03;5019162;28;45399;-79
2022/09/16 02:04:05;;;;;;;;;9.25;9.25;;;;;16.68;57.41;101015.72;5019343;28;45355;-80
2022/09/16 02:06:33;;;;;;;;;6.50;6.50;;;;;16.67;57.29;101006.03;5017987;28;45356;-80
2022/09/16 02:09:08;;;;;;;;;10.75;8.50;;;;;16.73;57.55;101029.78;5003258;28;47076;-80
2022/09/16 02:11:37;;;;;;;;;9.50;9.50;;;;;16.64;57.67;101006.09;4999556;28;45317;-79
2022/09/16 02:14:12;;;;;;;;;9.00;7.75;;;;;16.65;57.77;101007.84;4999603;28;45170;-80
2022/09/16 02:16:49;;;;;;;;;11.50;8.50;;;;;16.63;57.81;101015.88;4997786;28;45544;-79
2022/09/16 02:19:39;;;;;;;;;9.00;9.00;;;;;16.60;57.92;101013.28;4999008;28;46528;-79
2022/09/16 02:22:10;;;;;;;;;11.50;11.25;;;;;16.61;58.12;101020.34;4997323;28;45515;-80
2022/09/16 02:24:38;;;;;;;;;11.50;9.75;;;;;16.54;58.02;101010.75;4999311;28;45421;-80
2022/09/16 02:27:09;;;;;;;;;10.00;9.25;;;;;16.53;58.11;101004.56;4997772;28;45735;-80
2022/09/16 02:30:04;;;;;;;;;9.50;9.25;;;;;16.56;58.65;101008.06;4999295;28;45732;-80
2022/09/16 02:32:32;;;;;;;;;10.00;10.00;;;;;16.62;58.66;101021.22;4996603;28;45522;-79
2022/09/16 02:35:00;;;;;;;;;11.00;10.50;;;;;16.60;58.35;101007.06;4998728;28;45396;-79
2022/09/16 02:37:33;;;;;;;;;8.25;8.25;;;;;16.59;58.70;101002.69;4999547;28;45250;-80
2022/09/16 02:40:05;;;;;;;;;11.50;9.25;;;;;16.58;58.74;101001.81;4997469;28;47685;-79
2022/09/16 02:42:32;;;;;;;;;10.00;8.75;;;;;16.61;58.80;101001.72;4999148;28;45407;-79
2022/09/16 02:44:59;;;;;;;;;9.75;9.25;;;;;16.61;58.85;101000.88;5000600;28;45380;-80
2022/09/16 02:47:57;;;;;;;;;9.00;9.00;;;;;16.62;59.01;100992.84;5011982;28;45179;-79
2022/09/16 02:50:33;;;;;;;;;9.25;8.75;;;;;16.65;58.71;100997.19;5022167;28;45174;-78
2022/09/16 02:53:14;;;;;;;;;7.75;7.25;;;;;16.63;58.93;101007.03;5022054;28;45417;-79
2022/09/16 02:55:54;;;;;;;;;9.75;9.75;;;;;16.57;58.75;101001.84;5020932;28;45485;-80
2022/09/16 02:58:20;;;;;;;;;10.25;9.00;;;;;16.54;59.15;100993.06;5021998;28;45471;-80
2022/09/16 03:00:48;;;;;;;;;10.00;10.00;;;;;16.53;59.40;101001.06;5020737;28;46076;-80
2022/09/16 03:03:14;;;;;;;;;11.00;8.50;;;;;16.50;59.44;100996.69;5021046;28;45406;-79
2022/09/16 03:06:07;;;;;;;;;10.00;8.75;;;;;16.54;59.25;100997.47;5022230;28;45257;-80
2022/09/16 03:08:34;;;;;;;;;13.75;12.50;;;;;16.50;59.35;100998.47;5021832;28;45426;-80
2022/09/16 03:11:25;;;;;;;;;10.00;10.00;;;;;16.46;59.57;100992.34;5021902;28;46620;-79
2022/09/16 03:14:10;;;;;;;;;13.25;11.00;;;;;16.52;59.67;101004.63;5017532;28;45383;-79
2022/09/16 03:16:40;;;;;;;;;11.75;10.50;;;;;16.43;59.52;100996.88;5021882;28;45477;-79
2022/09/16 03:19:27;;;;;;;;;11.00;8.50;;;;;16.43;59.97;100995.06;5021810;28;45371;-80
2022/09/16 03:21:58;;;;;;;;;10.75;10.75;;;;;16.39;60.01;100988.09;5021541;28;45311;-79
2022/09/16 03:24:39;;;;;;;;;14.75;11.00;;;;;16.34;60.17;100994.44;5021591;28;45268;-79
2022/09/16 03:27:15;;;;;;;;;12.50;12.25;;;;;16.33;60.14;100993.53;5020220;28;45718;-79
2022/09/16 03:29:54;;;;;;;;;12.75;9.75;;;;;16.32;60.32;100995.31;5020159;28;45461;-80
2022/09/16 03:32:24;;;;;;;;;11.25;10.25;;;;;16.31;60.44;100996.25;5021154;28;46416;-80
2022/09/16 03:35:16;;;;;;;;;12.00;12.00;;;;;16.30;60.46;100999.81;5020080;28;45417;-80
2022/09/16 03:37:44;;;;;;;;;13.50;11.00;;;;;16.21;60.70;100993.84;5019896;28;45273;-79
2022/09/16 03:40:14;;;;;;;;;8.00;8.00;;;;;16.24;60.83;101004.38;5019952;28;45510;-80
2022/09/16 03:42:41;;;;;;;;;15.50;12.00;;;;;16.22;60.61;101006.19;5020086;28;48421;-79
2022/09/16 03:45:12;;;;;;;;;10.50;10.50;;;;;16.16;60.39;101009.00;5019962;28;45623;-79
2022/09/16 03:47:38;;;;;;;;;12.75;11.50;;;;;16.14;60.95;101018.78;5021468;28;45746;-80
2022/09/16 03:50:04;;;;;;;;;15.75;14.50;;;;;16.07;61.01;101018.94;5021188;28;45542;-80
2022/09/16 03:52:29;;;;;;;;;13.25;12.25;;;;;16.04;61.21;101016.34;5019862;28;46082;-80
2022/09/16 03:54:54;;;;;;;;;15.75;12.75;;;;;16.00;61.17;101021.75;5020417;28;45454;-79
2022/09/16 03:57:20;;;;;;;;;16.00;14.25;;;;;15.97;61.25;101014.72;5021267;28;45224;-79
2022/09/16 03:59:45;;;;;;;;;13.00;12.25;;;;;15.97;61.65;101020.03;5019847;28;45345;-80
2022/09/16 04:02:11;;;;;;;;;15.25;14.75;;;;;15.98;61.44;101020.91;5019754;28;45877;-79
2022/09/16 04:04:36;;;;;;;;;15.75;13.75;;;;;15.92;61.39;101007.75;5021072;28;45245;-79
2022/09/16 04:07:01;;;;;;;;;11.00;10.00;;;;;15.92;61.74;101015.72;5021338;28;45411;-80
2022/09/16 04:09:27;;;;;;;;;10.00;9.00;;;;;15.90;61.99;101013.09;5020752;28;45317;-79
2022/09/16 04:11:52;;;;;;;;;10.50;9.25;;;;;15.90;62.14;101017.53;5023427;28;45225;-79
2022/09/16 04:14:18;;;;;;;;;11.00;10.75;;;;;15.95;62.17;101024.50;5021407;28;45280;-80
2022/09/16 04:16:43;;;;;;;;;11.50;10.00;;;;;15.91;61.65;101028.13;5021100;28;45272;-80
2022/09/16 04:19:12;;;;;;;;;11.50;10.75;;;;;15.89;61.70;101027.28;5002871;28;45509;-79
2022/09/16 04:21:37;;;;;;;;;9.75;9.00;;;;;15.90;62.14;101026.38;4999585;28;47572;-80
2022/09/16 04:24:03;;;;;;;;;9.25;8.75;;;;;15.88;61.97;101014.94;5000472;28;45284;-79
2022/09/16 04:26:28;;;;;;;;;14.75;11.25;;;;;15.92;61.68;101029.00;5001279;28;45306;-79
2022/09/16 04:28:54;;;;;;;;;11.50;9.75;;;;;15.92;61.79;101029.88;5001049;28;45273;-79
2022/09/16 04:31:19;;;;;;;;;10.00;10.00;;;;;15.93;61.89;101030.75;4999513;28;46224;-79
2022/09/16 04:33:45;;;;;;;;;12.25;11.00;;;;;15.90;62.11;101025.50;5004247;28;45316;-80
2022/09/16 04:36:13;;;;;;;;;8.75;8.75;;;;;15.94;61.93;101037.81;5020864;28;45240;-79
2022/09/16 04:38:42;;;;;;;;;11.25;8.50;;;;;15.98;61.94;101042.16;5004024;28;45199;-80
2022/09/16 04:41:11;;;;;;;;;12.75;10.50;;;;;15.96;61.91;101028.91;5000527;28;45526;-79
2022/09/16 04:43:36;;;;;;;;;10.00;9.00;;;;;16.01;61.89;101031.44;4999409;28;45770;-79
2022/09/16 04:46:02;;;;;;;;;11.50;11.25;;;;;16.05;61.79;101026.06;4999337;28;45392;-79
2022/09/16 04:48:29;;;;;;;;;9.50;8.50;;;;;16.02;61.35;101020.81;5017453;28;45248;-79
2022/09/16 04:51:01;;;;;;;;;9.00;9.00;;;;;16.03;61.67;101033.16;5020494;28;45545;-79
2022/09/16 04:53:26;;;;;;;;;11.75;10.75;;;;;16.00;61.84;101021.75;5020012;28;45295;-79
2022/09/16 04:55:52;;;;;;;;;14.00;12.00;;;;;16.01;61.79;101026.13;5020159;28;45500;-80
2022/09/16 04:58:17;;;;;;;;;13.50;13.25;;;;;16.03;61.52;101027.00;5020215;28;45249;-79
2022/09/16 05:00:43;;;;;;;;;12.00;11.00;;;;;16.01;61.58;101020.81;5006090;28;46856;-79
2022/09/16 05:03:09;;;;;;;;;10.75;9.75;;;;;16.07;61.51;101018.06;5018052;28;45285;-80
2022/09/16 05:05:34;;;;;;;;;10.00;9.25;;;;;16.10;61.71;101028.63;5019124;28;45284;-80
2022/09/16 05:08:00;;;;;;;;;11.25;10.25;;;;;16.07;61.22;101034.88;5017180;28;45458;-80
2022/09/16 05:10:27;;;;;;;;;10.75;9.50;;;;;15.98;61.62;101015.59;5018652;28;46831;-80
2022/09/16 05:12:53;;;;;;;;;16.00;13.50;;;;;15.97;62.07;101025.34;5020172;28;45411;-79
2022/09/16 05:15:19;;;;;;;;;14.75;13.25;;;;;16.00;61.67;101033.25;5020073;28;45569;-80
2022/09/16 05:17:45;;;;;;;;;11.00;11.00;;;;;16.05;61.79;101036.66;5000409;28;45221;-79
2022/09/16 05:20:11;;;;;;;;;13.00;11.75;;;;;16.03;61.78;101032.31;4999781;28;45229;-80
2022/09/16 05:22:37;;;;;;;;;12.00;11.00;;;;;16.02;61.67;101027.91;4999845;28;45768;-79
2022/09/16 05:25:03;;;;;;;;;12.00;10.00;;;;;15.99;61.50;101022.66;5000139;28;45186;-80
2022/09/16 05:27:32;;;;;;;;;8.75;8.00;;;;;16.02;61.53;101028.78;4998491;28;45261;-80
2022/09/16 05:29:57;;;;;;;;;12.00;12.00;;;;;16.06;61.57;101040.19;4999815;28;46591;-79
2022/09/16 05:32:23;;;;;;;;;13.00;11.50;;;;;16.05;61.82;101054.41;4998545;28;45336;-79
2022/09/16 05:34:49;;;;;;;;;11.00;10.50;;;;;16.10;61.45;101052.53;5000445;28;45507;-80
2022/09/16 05:37:15;;;;;;;;;13.50;12.25;;;;;16.10;61.43;101049.88;5000553;28;45375;-80
2022/09/16 05:39:41;;;;;;;;;10.00;10.00;;;;;16.10;61.63;101058.69;4999527;28;45317;-79
2022/09/16 05:42:08;;;;;;;;;11.50;10.00;;;;;16.05;61.81;101046.44;4998733;28;45639;-80
2022/09/16 05:44:33;;;;;;;;;10.50;10.50;;;;;16.09;61.44;101066.69;4998129;28;45174;-80
2022/09/16 05:46:59;;;;;;;;;10.75;10.75;;;;;16.01;61.53;101045.63;5006121;28;45226;-80
2022/09/16 05:49:25;;;;;;;;;11.00;11.00;;;;;16.08;61.62;101065.81;5018299;28;46873;-80
2022/09/16 05:51:51;;;;;;;;;12.00;11.50;;;;;16.10;61.39;101066.66;5018320;28;45882;-80
2022/09/16 05:54:18;;;;;;;;;11.75;10.25;;;;;16.13;61.70;101054.22;5019575;28;45311;-80
2022/09/16 05:56:43;;;;;;;;;12.50;11.75;;;;;16.14;61.41;101058.63;5019609;28;45522;-80
2022/09/16 05:59:11;;;;;;;;;13.75;11.75;;;;;16.10;61.61;101049.88;5019491;28;45604;-78
2022/09/16 06:01:37;;;;;;;;;11.25;11.25;;;;;16.10;61.36;101053.38;5020097;28;45186;-81
2022/09/16 06:04:05;;;;;;;;;13.00;12.00;;;;;16.13;61.54;101062.19;5020527;28;45223;-81
2022/09/16 06:06:33;;;;;;;;;12.50;11.00;;;;;16.13;61.66;101063.06;5020302;28;45353;-81
2022/09/16 06:09:05;;;;;;;;;16.25;12.50;;;;;16.12;61.44;101064.00;5020408;28;45382;-81
2022/09/16 06:11:30;;;;;;;;;11.75;9.50;;;;;16.14;61.65;101074.56;5020127;28;45431;-80
2022/09/16 06:13:58;;;;;;;;;9.00;8.25;;;;;16.15;61.80;101081.66;5020072;28;45421;-80
2022/09/16 06:16:26;;;;;;;;;14.50;13.00;;;;;16.17;61.81;101080.72;5020224;28;45521;-80
2022/09/16 06:18:52;;;;;;;;;12.75;11.00;;;;;16.12;61.43;101068.41;5021588;28;47286;-80
2022/09/16 06:21:18;;;;;;;;;13.00;11.50;;;;;16.17;61.33;101063.88;5023361;28;45276;-80
2022/09/16 06:23:43;;;;;;;;;9.75;9.75;;;;;16.22;61.42;101069.97;5024569;28;45220;-80
2022/09/16 06:26:13;;;;;;;;;12.50;12.50;;;;;16.27;61.40;101070.72;5021909;28;45569;-81
2022/09/16 06:28:38;;;;;;;;;13.25;13.00;;;;;16.30;61.31;101062.69;5022453;28;45793;-81
2022/09/16 06:31:11;;;;;;;;;15.50;13.25;;;;;16.32;61.42;101068.84;5022543;28;45419;-81
2022/09/16 06:33:36;;;;;;;;;12.75;12.25;;;;;16.33;61.30;101065.28;5021236;28;45514;-81
2022/09/16 06:36:15;;;;;;;;;13.75;11.75;;;;;16.40;61.25;101066.03;5021102;28;45665;-80
2022/09/16 06:38:40;;;;;;;;;13.50;12.00;;;;;16.38;61.33;101066.06;5020539;28;47038;-81
2022/09/16 06:41:09;;;;;;;;;10.75;10.75;;;;;16.41;61.46;101071.31;5021209;28;45256;-81
2022/09/16 06:43:35;;;;;;;;;14.25;14.25;;;;;16.47;61.08;101079.16;5022497;28;45674;-81
2022/09/16 06:46:04;;;;;;;;;13.50;12.50;;;;;16.51;61.39;101082.59;5022312;28;45308;-81
2022/09/16 06:48:32;;;;;;;;;12.75;12.75;;;;;16.53;60.97;101084.31;5020341;28;46693;-81
2022/09/16 06:51:03;;;;;;;;;15.50;13.50;;;;;16.60;61.09;101087.72;5020657;28;45280;-80
2022/09/16 06:53:29;;;;;;;;;13.00;11.75;;;;;16.59;61.10;101079.78;5020515;28;45701;-80
2022/09/16 06:55:59;;;;;;;;;10.75;9.75;;;;;16.63;61.05;101079.66;5021649;28;45252;-81
2022/09/16 06:58:25;;;;;;;;;12.00;12.00;;;;;16.75;60.76;101089.13;5021696;28;45430;-81
2022/09/16 07:00:50;;;;;;;;;14.00;13.00;;;;;16.83;60.86;101089.84;5021735;28;45322;-81
2022/09/16 07:03:16;;;;;;;;;13.50;13.25;;;;;16.92;60.64;101094.06;5021955;28;45324;-81
2022/09/16 07:05:42;;;;;;;;;13.00;12.00;;;;;16.94;60.52;101097.56;5020477;28;46090;-80
2022/09/16 07:08:07;;;;;;;;;15.00;13.25;;;;;17.04;60.30;101098.22;5020055;28;46995;-81
2022/09/16 07:10:32;;;;;;;;;16.25;14.25;;;;;17.06;60.41;101099.94;5020151;28;45336;-81
2022/09/16 07:12:58;;;;;;;;;16.00;15.25;;;;;17.14;60.36;101105.06;5021597;28;45256;-81
2022/09/16 07:15:23;;;;;;;;;14.00;14.00;;;;;17.23;60.11;101106.63;5020104;28;45402;-81
2022/09/16 07:17:54;;;;;;;;;15.50;15.25;;;;;17.27;60.06;101105.63;5021537;28;45585;-81
2022/09/16 07:20:19;;;;;;;;;14.25;13.50;;;;;17.31;59.74;101109.97;5020267;28;45309;-81
2022/09/16 07:22:49;;;;;;;;;14.00;12.25;;;;;17.36;59.86;101111.59;5021338;28;45409;-81
2022/09/16 07:25:15;;;;;;;;;15.25;15.25;;;;;17.36;59.84;101106.25;5020228;28;45679;-81
2022/09/16 07:27:41;;;;;;;;;15.00;15.00;;;;;17.45;59.32;101115.78;5019790;28;48306;-81
2022/09/16 07:30:07;;;;;;;;;18.75;14.00;;;;;17.54;59.33;101123.53;5019070;28;45734;-80
2022/09/16 07:32:32;;;;;;;;;13.00;12.25;;;;;17.58;59.07;101116.34;5021236;28;45296;-81
2022/09/16 07:34:57;;;;;;;;;12.75;12.50;;;;;17.69;59.51;101124.03;5019877;28;46479;-81
2022/09/16 07:37:23;;;;;;;;;9.75;9.75;;;;;17.71;59.28;101116.88;5020862;28;45316;-81
2022/09/16 07:39:49;;;;;;;;;13.75;13.00;;;;;17.78;59.15;101116.69;5019479;28;45231;-81
2022/09/16 07:42:14;;;;;;;;;14.50;13.00;;;;;17.82;58.78;101128.16;5036580;28;45399;-81
2022/09/16 07:44:39;;;;;;;;;13.75;12.50;;;;;17.85;59.03;101120.06;5019707;28;45242;-80
2022/09/16 07:47:05;;;;;;;;;15.00;14.00;;;;;17.88;58.65;101121.78;5022953;28;45288;-80
2022/09/16 07:49:31;;;;;;;;;14.75;13.75;;;;;17.95;58.83;101123.34;5019568;28;45343;-81
2022/09/16 07:51:56;;;;;;;;;17.50;17.25;;;;;17.92;58.54;101123.44;5020953;28;45316;-81
2022/09/16 07:54:22;;;;;;;;;15.75;13.75;;;;;17.91;58.23;101127.91;5018886;28;45922;-81
2022/09/16 07:56:47;;;;;;;;;15.00;14.75;;;;;17.94;58.47;101137.59;5020728;28;46062;-80
2022/09/16 07:59:15;;;;;;;;;13.75;12.25;;;;;17.88;58.25;101133.28;5020282;28;45285;-81
2022/09/16 08:01:41;;;;;;;;;15.50;14.25;;;;;17.85;58.22;101142.28;5019193;28;45242;-81
2022/09/16 08:04:06;;;;;;;;;17.00;16.00;;;;;17.90;58.46;101151.91;5019061;28;45470;-81
2022/09/16 08:06:35;;;;;;;;;16.50;12.75;;;;;17.89;58.42;101151.03;5020701;28;45639;-81
2022/09/16 08:09:01;;;;;;;;;14.25;14.25;;;;;17.88;58.67;101145.75;5020186;28;45421;-81
2022/09/16 08:11:27;;;;;;;;;18.25;17.50;;;;;17.87;58.77;101149.34;5020408;28;45295;-81
2022/09/16 08:13:52;;;;;;;;;17.50;15.25;;;;;17.84;58.40;101140.50;5018968;28;45434;-80
2022/09/16 08:16:20;;;;;;;;;17.25;17.25;;;;;17.90;58.74;101155.44;5019995;28;45352;-81
2022/09/16 08:18:48;;;;;;;;;16.75;13.25;;;;;17.90;58.49;101154.56;5020109;28;45237;-81
2022/09/16 08:21:19;;;;;;;;;12.75;10.75;;;;;17.90;58.45;101152.78;5020395;28;45217;-81
2022/09/16 08:23:45;;;;;;;;;18.00;15.00;;;;;17.87;58.33;101152.00;5019889;28;45419;-81
2022/09/16 08:26:12;;;;;;;;;29.25;28.25;;;;;17.90;58.29;101157.25;5020179;28;45511;-81
2022/09/16 08:28:40;;;;;;;;;16.25;16.25;;;;;17.92;58.01;101169.59;5018902;28;45268;-81
2022/09/16 08:31:06;;;;;;;;;15.75;14.75;;;;;17.90;58.46;101157.25;5020478;28;45418;-81
2022/09/16 08:33:31;;;;;;;;;13.00;12.00;;;;;17.94;58.78;101167.78;5019910;28;45564;-81
2022/09/16 08:35:58;;;;;;;;;12.75;11.75;;;;;17.98;58.37;101166.75;5020063;28;45387;-81
2022/09/16 08:38:24;;;;;;;;;12.50;12.00;;;;;17.99;58.36;101167.63;5018325;28;45371;-81
2022/09/16 08:40:52;;;;;;;;;17.50;15.75;;;;;18.04;58.52;101165.72;5018225;28;45387;-81
2022/09/16 08:43:51;;;;;;;;;12.50;12.50;;;;;18.07;58.35;101165.66;5017653;28;45248;-81
2022/09/16 08:46:30;;;;;;;;;10.50;9.50;;;;;18.18;57.89;101171.56;4980953;28;47353;-81
2022/09/16 08:49:36;;;;;;;;;12.25;11.50;;;;;18.29;57.64;101181.91;5019939;28;45228;-81
2022/09/16 08:52:09;;;;;;;;;13.75;13.50;;;;;18.39;57.62;101174.50;5018377;28;45400;-81
2022/09/16 08:54:49;;;;;;;;;12.75;11.50;;;;;18.54;57.62;101182.06;5019354;28;45387;-81
2022/09/16 08:57:20;;;;;;;;;8.25;7.75;;;;;18.66;57.04;101175.50;5018091;28;47763;-81
2022/09/16 08:59:52;;;;;;;;;11.25;10.00;;;;;18.80;56.91;101180.44;5018416;28;45397;-81
2022/09/16 09:02:33;;;;;;;;;12.00;10.50;;;;;18.92;56.28;101185.38;5017872;28;45458;-81
2022/09/16 09:04:59;;;;;;;;;12.50;9.00;;;;;18.98;56.40;101193.22;5018092;28;45383;-81
2022/09/16 09:07:36;;;;;;;;;11.50;10.00;;;;;19.08;56.38;101189.28;5003948;28;46715;-81
2022/09/16 09:10:23;;;;;;;;;10.67;8.00;;;;;19.17;55.72;101202.38;4998155;28;45479;-80
2022/09/16 09:13:00;;;;;;;;;9.75;9.25;;;;;19.25;55.54;101196.78;4998726;28;45563;-80
2022/09/16 09:15:57;;;;;;;;;9.25;8.50;;;;;19.37;55.14;101204.38;4999812;28;45248;-81
2022/09/16 09:18:48;;;;;;;;;13.25;11.00;;;;;19.47;54.92;101202.28;5008196;28;46116;-81
2022/09/16 09:21:29;;;;;;;;;11.33;10.67;;;;;19.59;54.51;101193.88;5018213;28;45469;-81
2022/09/16 09:24:23;;;;;;;;;4.00;4.00;;;;;19.79;52.73;101198.53;5017777;28;45540;-81
2022/09/16 09:26:50;;;;;;;;;4.67;4.33;;;;;19.93;51.44;101198.06;5018001;28;45586;-81
2022/09/16 09:29:51;;;;;;;;;3.67;3.00;;;;;20.16;50.46;101204.41;5017263;28;48345;-82
2022/09/16 09:32:22;;;;;;;;;0.67;0.67;;;;;20.29;48.99;101205.69;5019081;28;45324;-80
2022/09/16 09:35:06;;;;;;;;;2.00;2.00;;;;;20.44;47.80;101209.59;5017468;28;45402;-80
2022/09/16 09:38:09;;;;;;;;;2.67;1.67;;;;;20.46;46.64;101210.41;5018972;28;45411;-81
2022/09/16 09:40:49;;;;;;;;;3.00;3.00;;;;;20.48;46.83;101193.38;5019079;28;46317;-81
2022/09/16 09:43:17;;;;;;;;;2.00;1.33;;;;;20.62;46.10;101208.06;5018672;28;45432;-81
2022/09/16 09:45:58;;;;;;;;;1.00;1.00;;;;;20.73;45.94;101207.66;5018127;28;45285;-81
2022/09/16 09:48:47;;;;;;;;;1.00;1.00;;;;;20.78;44.43;101211.03;5019202;28;45334;-81
2022/09/16 09:51:45;;;;;;;;;3.00;1.33;;;;;20.79;44.18;101213.63;5017651;28;46029;-81
2022/09/16 09:54:28;;;;;;;;;2.00;2.00;;;;;20.84;43.69;101208.97;5017177;28;46027;-81
2022/09/16 09:57:22;;;;;;;;;2.33;2.33;;;;;20.91;43.88;101206.94;5021471;28;45337;-81
2022/09/16 09:59:58;;;;;;;;;1.00;1.00;;;;;21.03;42.96;101208.25;5021723;28;45472;-81
2022/09/16 10:02:24;;;;;;;;;1.00;1.00;;;;;21.07;42.57;101210.75;5020746;28;47586;-81
2022/09/16 10:04:49;;;;;;;;;1.67;1.00;;;;;21.13;42.02;101209.63;5022476;28;45467;-81
2022/09/16 10:07:19;;;;;;;;;2.67;2.67;;;;;21.19;42.14;101209.38;5022417;28;45419;-81
2022/09/16 10:10:02;;;;;;;;;1.00;1.00;;;;;21.25;41.87;101208.25;5021167;28;45426;-81
2022/09/16 10:12:32;;;;;;;;;0.67;0.33;;;;;21.28;41.82;101208.16;5018905;28;47476;-81
2022/09/16 10:14:58;;;;;;;;;2.00;1.00;;;;;21.36;41.62;101209.56;5001763;28;45455;-81
2022/09/16 10:17:26;;;;;;;;;1.00;1.00;;;;;21.47;41.15;101209.16;5002614;28;45174;-81
2022/09/16 10:19:56;;;;;;;;;2.00;1.33;;;;;21.63;41.33;101211.22;5001125;28;45384;-81
2022/09/16 10:22:28;;;;;;;;;1.67;1.67;;;;;21.76;40.46;101210.63;5000438;28;47056;-81
2022/09/16 10:24:59;;;;;;;;;0.00;0.00;;;;;21.94;40.74;101206.25;5002080;28;45406;-81
2022/09/16 10:27:31;;;;;;;;;1.00;1.00;;;;;22.18;40.55;101204.31;5002553;28;45289;-80
2022/09/16 10:30:11;;;;;;;;;1.00;1.00;;;;;22.37;39.85;101190.97;5000914;28;45322;-81
2022/09/16 10:32:46;;;;;;;;;3.00;3.00;;;;;22.52;38.86;101197.44;5009022;28;47235;-81
2022/09/16 10:35:19;;;;;;;;;1.33;1.33;;;;;22.62;37.97;101195.19;5021900;28;45457;-81
2022/09/16 10:37:54;;;;;;;;;2.00;1.00;;;;;22.54;37.69;101200.06;5020611;28;45410;-81
2022/09/16 10:40:22;;;;;;;;;2.00;1.33;;;;;22.36;37.47;101197.25;5022242;28;45242;-80
2022/09/16 10:42:49;;;;;;;;;0.67;0.67;;;;;22.28;37.51;101202.09;5021879;28;45450;-81
2022/09/16 10:45:35;;;;;;;;;4.00;2.67;;;;;22.23;37.85;101201.44;5022059;28;45431;-81
2022/09/16 10:48:10;;;;;;;;;2.33;2.00;;;;;22.16;37.66;101203.50;5022436;28;45407;-79
2022/09/16 10:50:36;;;;;;;;;2.00;2.00;;;;;22.01;37.77;101207.72;5022525;28;45265;-81
2022/09/16 10:53:21;;;;;;;;;1.33;1.33;;;;;21.77;37.75;101217.69;5021999;28;45268;-80
2022/09/16 10:55:56;;;;;;;;;5.00;3.00;;;;;21.63;38.14;101212.06;5020567;28;45210;-81
2022/09/16 10:58:22;;;;;;;;;2.00;2.00;;;;;21.57;38.21;101212.31;5020444;28;45473;-81
2022/09/16 11:01:03;;;;;;;;;1.00;1.00;;;;;21.58;37.88;101216.75;5022045;28;45357;-81
2022/09/16 11:03:48;;;;;;;;;2.00;1.67;;;;;21.57;38.35;101215.00;5020945;28;48297;-81
2022/09/16 11:06:42;;;;;;;;;3.67;2.00;;;;;21.65;38.56;101217.34;5020199;28;45415;-81
2022/09/16 11:09:11;;;;;;;;;7.00;5.67;;;;;21.71;38.57;101214.44;5020212;28;45375;-81
2022/09/16 11:12:02;;;;;;;;;2.00;2.00;;;;;21.77;38.29;101211.47;5021316;28;45374;-81
2022/09/16 11:14:39;;;;;;;;;4.33;4.33;;;;;21.79;38.27;101213.16;5019910;28;46666;-81
2022/09/16 11:17:32;;;;;;;;;3.00;3.00;;;;;21.85;38.19;101208.47;5020302;28;45340;-81
2022/09/16 11:20:08;;;;;;;;;4.00;4.00;;;;;21.79;37.86;101210.47;5020212;28;45326;-81
2022/09/16 11:22:59;;;;;;;;;3.00;1.67;;;;;21.76;37.38;101207.06;5021103;28;45359;-80
2022/09/16 11:25:43;;;;;;;;;2.67;2.67;;;;;21.92;37.47;101208.13;5021377;28;45630;-81
2022/09/16 11:28:44;;;;;;;;;2.33;2.33;;;;;22.07;37.19;101219.97;5019875;28;45262;-80
2022/09/16 11:31:28;;;;;;;;;1.00;1.00;;;;;22.28;36.76;101210.16;5019694;28;45268;-80
2022/09/16 11:34:10;;;;;;;;;1.67;1.67;;;;;22.43;35.98;101208.59;5002692;28;45566;-79
2022/09/16 11:36:54;;;;;;;;;1.00;1.00;;;;;22.60;36.01;101210.50;5014904;28;47308;-80
2022/09/16 11:39:37;;;;;;;;;2.00;2.00;;;;;22.87;35.31;101206.50;5010004;28;45189;-80